createdAt,value
2022-09-09T00:00:14.981Z,1.00
2022-09-09T00:02:46.402Z,0.77
2022-09-09T00:05:17.206Z,0.80
2022-09-09T00:07:47.669Z,0.83
2022-09-09T00:10:32.120Z,0.80
2022-09-09T00:12:59.553Z,0.60
2022-09-09T00:15:34.852Z,0.93
2022-09-09T00:18:13.162Z,0.70
2022-09-09T00:20:45.405Z,1.07
2022-09-09T00:23:15.946Z,0.90
2022-09-09T00:25:48.802Z,1.10
2022-09-09T00:28:20.965Z,1.20
2022-09-09T00:30:48.609Z,1.00
2022-09-09T00:33:18.060Z,1.23
2022-09-09T00:35:48.492Z,0.90
2022-09-09T00:38:21.385Z,0.90
2022-09-09T00:40:51.575Z,1.07
2022-09-09T00:43:32.581Z,1.17
2022-09-09T00:46:02.821Z,1.60
2022-09-09T00:48:40.594Z,1.43
2022-09-09T00:51:15.302Z,1.53
2022-09-09T00:54:01.365Z,1.70
2022-09-09T00:56:32.683Z,1.37
2022-09-09T00:59:05.976Z,1.50
2022-09-09T01:01:33.560Z,1.20
2022-09-09T01:04:01.265Z,1.30
2022-09-09T01:06:36.504Z,1.30
2022-09-09T01:09:22.798Z,1.50
2022-09-09T01:12:08.369Z,1.23
2022-09-09T01:14:35.832Z,1.30
2022-09-09T01:17:14.018Z,1.20
2022-09-09T01:19:41.474Z,1.20
2022-09-09T01:22:11.650Z,1.30
2022-09-09T01:24:57.333Z,1.20
2022-09-09T01:27:25.052Z,1.23
2022-09-09T01:29:52.479Z,1.77
2022-09-09T01:32:38.607Z,1.00
2022-09-09T01:35:07.390Z,1.27
2022-09-09T01:37:34.833Z,1.63
2022-09-09T01:40:02.870Z,1.23
2022-09-09T01:42:30.441Z,1.27
2022-09-09T01:44:57.938Z,1.20
2022-09-09T01:47:25.737Z,1.03
2022-09-09T01:49:53.328Z,1.30
2022-09-09T01:52:20.771Z,1.30
2022-09-09T01:54:48.309Z,1.10
2022-09-09T01:57:24.302Z,1.00
2022-09-09T01:59:51.786Z,1.70
2022-09-09T02:02:20.637Z,1.33
2022-09-09T02:04:57.070Z,1.93
2022-09-09T02:07:42.312Z,1.23
2022-09-09T02:10:09.987Z,1.03
2022-09-09T02:12:38.149Z,1.13
2022-09-09T02:15:09.202Z,1.23
2022-09-09T02:17:38.137Z,2.43
2022-09-09T02:20:13.658Z,1.60
2022-09-09T02:22:42.389Z,1.63
2022-09-09T02:25:11.697Z,1.40
2022-09-09T02:27:39.153Z,1.20
2022-09-09T02:30:06.917Z,1.60
2022-09-09T02:32:35.596Z,1.30
2022-09-09T02:35:07.673Z,1.23
2022-09-09T02:37:39.652Z,1.10
2022-09-09T02:40:08.104Z,1.33
2022-09-09T02:42:42.115Z,1.27
2022-09-09T02:45:10.385Z,1.90
2022-09-09T02:47:54.826Z,1.30
2022-09-09T02:50:22.358Z,1.10
2022-09-09T02:53:12.680Z,1.27
2022-09-09T02:55:47.397Z,1.50
2022-09-09T02:58:16.247Z,1.30
2022-09-09T03:00:43.766Z,1.20
2022-09-09T03:03:11.434Z,1.20
2022-09-09T03:05:38.926Z,1.10
2022-09-09T03:08:06.730Z,1.50
2022-09-09T03:10:34.577Z,1.30
2022-09-09T03:13:02.102Z,1.47
2022-09-09T03:15:29.617Z,1.00
2022-09-09T03:17:57.406Z,1.10
2022-09-09T03:20:25.566Z,1.77
2022-09-09T03:22:53.834Z,1.20
2022-09-09T03:25:21.732Z,1.20
2022-09-09T03:27:49.171Z,1.27
2022-09-09T03:30:16.729Z,1.30
2022-09-09T03:32:48.777Z,1.40
2022-09-09T03:35:16.572Z,1.30
2022-09-09T03:37:44.064Z,1.60
2022-09-09T03:40:12.006Z,1.60
2022-09-09T03:42:40.114Z,1.53
2022-09-09T03:45:09.031Z,1.60
2022-09-09T03:47:39.694Z,1.30
2022-09-09T03:50:07.682Z,1.37
2022-09-09T03:52:36.105Z,1.43
2022-09-09T03:55:03.777Z,1.50
2022-09-09T03:57:31.273Z,1.57
2022-09-09T03:59:58.734Z,1.60
2022-09-09T04:02:26.187Z,2.00
2022-09-09T04:04:53.851Z,1.57
2022-09-09T04:07:21.311Z,1.50
2022-09-09T04:09:48.736Z,1.60
2022-09-09T04:12:16.208Z,1.80
2022-09-09T04:14:43.714Z,1.70
2022-09-09T04:17:11.162Z,1.60
2022-09-09T04:19:38.658Z,1.53
2022-09-09T04:22:06.260Z,1.57
2022-09-09T04:24:33.910Z,1.50
2022-09-09T04:27:01.363Z,1.40
2022-09-09T04:29:29.142Z,1.50
2022-09-09T04:31:56.651Z,1.50
2022-09-09T04:34:24.151Z,1.67
2022-09-09T04:36:51.721Z,1.80
2022-09-09T04:39:19.293Z,2.23
2022-09-09T04:41:46.744Z,2.70
2022-09-09T04:44:14.538Z,2.77
2022-09-09T04:46:43.221Z,2.03
2022-09-09T04:49:21.422Z,1.80
2022-09-09T04:51:50.646Z,1.57
2022-09-09T04:54:18.093Z,2.07
2022-09-09T04:56:45.582Z,1.77
2022-09-09T04:59:13.103Z,2.53
2022-09-09T05:01:42.294Z,1.30
2022-09-09T05:04:09.778Z,1.73
2022-09-09T05:06:37.252Z,1.80
2022-09-09T05:09:05.092Z,1.63
2022-09-09T05:11:33.311Z,1.67
2022-09-09T05:14:00.881Z,1.60
2022-09-09T05:16:28.521Z,1.33
2022-09-09T05:18:56.025Z,1.33
2022-09-09T05:21:24.316Z,1.87
2022-09-09T05:23:51.802Z,3.50
2022-09-09T05:26:20.238Z,1.50
2022-09-09T05:28:47.801Z,1.57
2022-09-09T05:31:15.880Z,1.70
2022-09-09T05:33:44.493Z,1.37
2022-09-09T05:36:13.130Z,2.17
2022-09-09T05:38:41.002Z,1.90
2022-09-09T05:41:09.229Z,1.87
2022-09-09T05:43:36.696Z,1.70
2022-09-09T05:46:07.788Z,2.63
2022-09-09T05:48:36.970Z,1.37
2022-09-09T05:51:04.790Z,2.10
2022-09-09T05:53:32.620Z,1.83
2022-09-09T05:56:01.869Z,1.60
2022-09-09T05:58:29.685Z,1.70
2022-09-09T06:01:04.238Z,3.20
2022-09-09T06:03:31.714Z,1.30
2022-09-09T06:06:02.730Z,1.30
2022-09-09T06:08:30.349Z,1.40
2022-09-09T06:11:02.688Z,1.83
2022-09-09T06:13:30.782Z,1.50
2022-09-09T06:15:58.269Z,1.40
2022-09-09T06:18:26.339Z,1.93
2022-09-09T06:20:56.509Z,1.30
2022-09-09T06:23:24.064Z,1.60
2022-09-09T06:25:51.593Z,1.43
2022-09-09T06:28:19.534Z,1.90
2022-09-09T06:30:46.965Z,1.63
2022-09-09T06:33:14.508Z,1.60
2022-09-09T06:35:41.990Z,1.73
2022-09-09T06:38:09.542Z,1.50
2022-09-09T06:40:37.210Z,1.23
2022-09-09T06:43:04.686Z,2.60
2022-09-09T06:45:32.207Z,2.33
2022-09-09T06:47:59.864Z,1.97
2022-09-09T06:50:27.323Z,1.53
2022-09-09T06:52:55.010Z,1.93
2022-09-09T06:55:22.458Z,1.60
2022-09-09T06:57:49.919Z,1.80
2022-09-09T07:00:17.353Z,1.73
2022-09-09T07:02:44.799Z,1.07
2022-09-09T07:05:12.242Z,1.30
2022-09-09T07:07:39.702Z,1.67
2022-09-09T07:10:07.400Z,1.50
2022-09-09T07:12:34.838Z,1.60
2022-09-09T07:15:02.379Z,1.20
2022-09-09T07:17:29.925Z,1.10
2022-09-09T07:19:57.374Z,1.70
2022-09-09T07:22:24.866Z,1.63
2022-09-09T07:24:52.501Z,1.93
2022-09-09T07:27:19.955Z,1.73
2022-09-09T07:29:47.528Z,1.50
2022-09-09T07:32:15.076Z,1.40
2022-09-09T07:34:42.568Z,1.40
2022-09-09T07:37:10.090Z,1.27
2022-09-09T07:39:37.626Z,1.97
2022-09-09T07:42:05.313Z,1.37
2022-09-09T07:44:32.845Z,1.27
2022-09-09T07:47:00.348Z,1.10
2022-09-09T07:49:32.615Z,1.50
2022-09-09T07:52:00.733Z,1.50
2022-09-09T07:54:28.279Z,1.73
2022-09-09T07:56:55.758Z,1.03
2022-09-09T07:59:23.377Z,1.33
2022-09-09T08:01:51.731Z,0.93
2022-09-09T08:04:20.088Z,1.00
2022-09-09T08:06:51.966Z,1.07
2022-09-09T08:09:19.445Z,1.40
2022-09-09T08:11:46.944Z,1.33
2022-09-09T08:14:15.109Z,1.63
2022-09-09T08:16:44.763Z,1.63
2022-09-09T08:19:12.227Z,1.50
2022-09-09T08:21:41.147Z,1.40
2022-09-09T08:24:10.100Z,1.50
2022-09-09T08:26:42.100Z,1.33
2022-09-09T08:29:10.518Z,1.20
2022-09-09T08:31:39.050Z,0.93
2022-09-09T08:34:07.170Z,1.47
2022-09-09T08:36:36.481Z,1.40
2022-09-09T08:39:04.990Z,1.20
2022-09-09T08:41:50.985Z,1.07
2022-09-09T08:44:21.481Z,1.40
2022-09-09T08:46:56.535Z,1.13
2022-09-09T08:49:30.220Z,1.40
2022-09-09T08:51:57.888Z,1.20
2022-09-09T08:54:50.661Z,1.00
2022-09-09T08:57:23.633Z,1.23
2022-09-09T08:59:51.957Z,1.10
2022-09-09T09:02:24.874Z,1.10
2022-09-09T09:05:00.386Z,1.27
2022-09-09T09:07:36.875Z,2.00
2022-09-09T09:10:39.887Z,1.40
2022-09-09T09:13:04.715Z,0.80
2022-09-09T09:15:35.417Z,0.97
2022-09-09T09:18:03.854Z,1.23
2022-09-09T09:20:44.575Z,1.00
2022-09-09T09:23:17.880Z,1.07
2022-09-09T09:25:45.897Z,1.20
2022-09-09T09:28:26.485Z,1.00
2022-09-09T09:30:57.418Z,1.43
2022-09-09T09:33:25.101Z,1.10
2022-09-09T09:35:52.540Z,1.00
2022-09-09T09:41:08.703Z,1.10
2022-09-09T09:43:37.812Z,1.20
2022-09-09T09:46:17.674Z,0.90
2022-09-09T09:48:46.760Z,0.97
2022-09-09T09:51:15.639Z,1.20
2022-09-09T09:53:43.549Z,1.37
2022-09-09T09:56:11.954Z,0.93
2022-09-09T09:58:45.386Z,1.50
2022-09-09T10:01:25.940Z,0.90
2022-09-09T10:03:54.227Z,1.37
2022-09-09T10:06:34.567Z,1.40
2022-09-09T10:09:03.336Z,1.00
2022-09-09T10:11:42.918Z,1.37
2022-09-09T10:14:18.766Z,0.83
2022-09-09T10:16:55.220Z,0.70
2022-09-09T10:19:28.498Z,0.70
2022-09-09T10:22:14.564Z,0.60
2022-09-09T10:24:47.946Z,0.80
2022-09-09T10:27:25.818Z,1.00
2022-09-09T10:29:59.516Z,1.43
2022-09-09T10:32:43.385Z,1.07
2022-09-09T10:35:18.508Z,1.40
2022-09-09T10:37:45.977Z,0.80
2022-09-09T10:40:33.240Z,1.00
2022-09-09T10:43:05.449Z,1.00
2022-09-09T10:45:44.828Z,0.70
2022-09-09T10:48:25.848Z,0.97
2022-09-09T10:51:03.489Z,0.80
2022-09-09T10:53:31.990Z,0.90
2022-09-09T10:56:03.687Z,0.83
2022-09-09T10:58:35.045Z,1.27
2022-09-09T11:01:05.400Z,1.30
2022-09-09T11:03:33.159Z,0.90
2022-09-09T11:06:00.729Z,0.70
2022-09-09T11:08:29.744Z,0.70
2022-09-09T11:11:00.163Z,0.80
2022-09-09T11:13:33.580Z,0.67
2022-09-09T11:16:02.977Z,0.83
2022-09-09T11:18:30.927Z,0.70
2022-09-09T11:21:01.017Z,0.73
2022-09-09T11:23:42.066Z,0.83
2022-09-09T11:26:14.019Z,1.53
2022-09-09T11:28:48.346Z,0.70
2022-09-09T11:31:24.687Z,0.73
2022-09-09T11:33:58.195Z,1.43
2022-09-09T11:36:34.928Z,1.00
2022-09-09T11:39:17.762Z,0.80
2022-09-09T11:41:45.255Z,0.60
2022-09-09T11:44:21.242Z,0.80
2022-09-09T11:46:52.052Z,0.57
2022-09-09T11:49:30.507Z,1.17
2022-09-09T11:51:58.025Z,0.73
2022-09-09T11:54:28.396Z,1.17
2022-09-09T11:56:55.981Z,0.60
2022-09-09T11:59:23.452Z,0.83
2022-09-09T12:01:52.612Z,0.60
2022-09-09T12:04:25.866Z,0.73
2022-09-09T12:06:55.370Z,1.20
2022-09-09T12:09:41.729Z,1.20
2022-09-09T12:12:22.629Z,1.13
2022-09-09T12:14:56.339Z,1.30
2022-09-09T12:17:25.268Z,1.47
2022-09-09T12:20:19.250Z,1.20
2022-09-09T12:23:25.371Z,1.20
2022-09-09T12:26:11.274Z,1.10
2022-09-09T12:28:41.584Z,1.23
2022-09-09T12:31:16.764Z,1.20
2022-09-09T12:33:45.178Z,1.50
2022-09-09T12:36:39.104Z,1.93
2022-09-09T12:39:19.167Z,1.20
2022-09-09T12:41:54.096Z,1.40
2022-09-09T12:44:21.630Z,1.73
2022-09-09T12:46:50.147Z,1.93
2022-09-09T12:49:26.990Z,2.43
2022-09-09T12:51:54.619Z,1.17
2022-09-09T12:54:23.030Z,1.90
2022-09-09T12:56:51.435Z,1.27
2022-09-09T12:59:36.368Z,1.03
2022-09-09T13:02:04.455Z,1.80
2022-09-09T13:04:31.996Z,1.67
2022-09-09T13:07:09.261Z,1.00
2022-09-09T13:09:36.895Z,0.90
2022-09-09T13:12:05.789Z,1.07
2022-09-09T13:14:35.515Z,0.90
2022-09-09T13:17:04.540Z,1.00
2022-09-09T13:19:34.168Z,1.00
2022-09-09T13:22:01.656Z,1.00
2022-09-09T13:24:33.209Z,0.87
2022-09-09T13:27:02.085Z,1.10
2022-09-09T13:29:30.364Z,1.20
2022-09-09T13:32:08.321Z,0.93
2022-09-09T13:34:36.544Z,1.33
2022-09-09T13:37:05.131Z,1.00
2022-09-09T13:39:32.658Z,0.83
2022-09-09T13:42:03.990Z,1.40
2022-09-09T13:44:37.815Z,0.90
2022-09-09T13:47:09.984Z,0.90
2022-09-09T13:49:38.263Z,0.90
2022-09-09T13:52:13.397Z,0.80
2022-09-09T13:54:41.353Z,0.77
2022-09-09T13:57:19.331Z,1.00
2022-09-09T14:00:04.510Z,1.27
2022-09-09T14:02:33.397Z,0.87
2022-09-09T14:05:01.195Z,0.97
2022-09-09T14:07:28.875Z,1.17
2022-09-09T14:09:56.304Z,1.10
2022-09-09T14:12:23.992Z,0.80
2022-09-09T14:14:51.414Z,0.90
2022-09-09T14:17:18.918Z,0.60
2022-09-09T14:19:46.428Z,1.73
2022-09-09T14:22:13.943Z,0.70
2022-09-09T14:24:41.768Z,0.40
2022-09-09T14:27:09.231Z,0.50
2022-09-09T14:29:36.656Z,0.60
2022-09-09T14:32:04.403Z,0.60
2022-09-09T14:34:31.940Z,0.83
2022-09-09T14:36:59.931Z,0.80
2022-09-09T14:39:27.360Z,1.10
2022-09-09T14:41:54.847Z,0.60
2022-09-09T14:44:22.357Z,0.60
2022-09-09T14:46:49.979Z,0.60
2022-09-09T14:49:17.765Z,0.63
2022-09-09T14:51:45.340Z,0.80
2022-09-09T14:54:12.949Z,0.70
2022-09-09T14:56:40.372Z,0.43
2022-09-09T14:59:07.851Z,0.67
2022-09-09T15:01:35.476Z,0.80
2022-09-09T15:04:04.676Z,0.70
2022-09-09T15:06:33.296Z,1.30
2022-09-09T15:09:01.123Z,0.60
2022-09-09T15:11:30.007Z,0.87
2022-09-09T15:13:57.993Z,0.60
2022-09-09T15:16:26.895Z,0.70
2022-09-09T15:18:55.235Z,0.50
2022-09-09T15:21:24.151Z,0.43
2022-09-09T15:23:51.617Z,0.40
2022-09-09T15:26:19.625Z,0.40
2022-09-09T15:28:47.330Z,0.40
2022-09-09T15:31:14.936Z,0.43
2022-09-09T15:33:42.746Z,0.40
2022-09-09T15:36:18.171Z,0.43
2022-09-09T15:38:46.100Z,0.47
2022-09-09T15:41:14.711Z,0.40
2022-09-09T15:43:46.161Z,0.30
2022-09-09T15:46:19.832Z,0.40
2022-09-09T15:48:49.015Z,0.40
2022-09-09T15:51:41.287Z,0.60
2022-09-09T15:54:06.471Z,0.60
2022-09-09T15:56:34.602Z,0.53
2022-09-09T15:59:02.820Z,0.70
2022-09-09T16:01:30.815Z,0.43
2022-09-09T16:03:58.796Z,0.67
2022-09-09T16:06:26.722Z,0.70
2022-09-09T16:08:54.827Z,0.70
2022-09-09T16:11:29.631Z,0.60
2022-09-09T16:13:57.671Z,0.70
2022-09-09T16:16:26.179Z,1.00
2022-09-09T16:18:55.434Z,1.07
2022-09-09T16:21:33.123Z,0.90
2022-09-09T16:24:01.573Z,0.90
2022-09-09T16:26:29.451Z,0.80
2022-09-09T16:28:57.005Z,0.90
2022-09-09T16:31:25.271Z,1.00
2022-09-09T16:33:53.161Z,1.03
2022-09-09T16:36:25.260Z,1.03
2022-09-09T16:38:56.445Z,1.20
2022-09-09T16:41:24.060Z,0.67
2022-09-09T16:43:55.787Z,0.70
2022-09-09T16:46:23.757Z,1.33
2022-09-09T16:48:51.665Z,1.27
2022-09-09T16:51:23.558Z,0.90
2022-09-09T16:53:51.441Z,2.03
2022-09-09T16:56:20.236Z,1.10
2022-09-09T16:58:52.012Z,0.90
2022-09-09T17:01:19.527Z,0.90
2022-09-09T17:03:47.131Z,1.00
2022-09-09T17:06:15.690Z,1.10
2022-09-09T17:08:46.063Z,1.37
2022-09-09T17:11:14.625Z,1.00
2022-09-09T17:13:43.160Z,1.30
2022-09-09T17:16:11.030Z,1.00
2022-09-09T17:18:38.656Z,1.00
2022-09-09T17:21:07.282Z,0.93
2022-09-09T17:23:35.664Z,1.10
2022-09-09T17:26:03.220Z,0.90
2022-09-09T17:28:30.679Z,1.13
2022-09-09T17:31:01.935Z,1.30
2022-09-09T17:33:29.893Z,1.23
2022-09-09T17:35:57.337Z,1.40
2022-09-09T17:38:28.649Z,1.03
2022-09-09T17:41:03.999Z,1.23
2022-09-09T17:43:31.730Z,1.00
2022-09-09T17:46:15.834Z,0.93
2022-09-09T17:48:44.030Z,1.47
2022-09-09T17:51:13.822Z,1.30
2022-09-09T17:53:45.279Z,2.13
2022-09-09T17:56:14.099Z,1.40
2022-09-09T17:58:42.003Z,1.10
2022-09-09T18:01:11.087Z,1.30
2022-09-09T18:03:39.120Z,1.53
2022-09-09T18:06:07.836Z,1.50
2022-09-09T18:08:36.931Z,1.67
2022-09-09T18:11:04.892Z,2.00
2022-09-09T18:13:32.787Z,1.20
2022-09-09T18:16:00.800Z,1.60
2022-09-09T18:18:29.776Z,1.40
2022-09-09T18:21:05.003Z,1.87
2022-09-09T18:23:34.857Z,1.23
2022-09-09T18:26:05.189Z,1.20
2022-09-09T18:28:33.104Z,1.00
2022-09-09T18:31:00.769Z,1.70
2022-09-09T18:33:28.291Z,1.13
2022-09-09T18:35:55.922Z,1.23
2022-09-09T18:38:23.470Z,1.20
2022-09-09T18:40:51.116Z,0.83
2022-09-09T18:43:18.820Z,1.80
2022-09-09T18:45:46.513Z,1.30
2022-09-09T18:48:14.224Z,1.10
2022-09-09T18:50:43.590Z,1.53
2022-09-09T18:53:13.647Z,1.30
2022-09-09T18:55:41.161Z,1.37
2022-09-09T18:58:08.630Z,1.23
2022-09-09T19:00:36.727Z,1.23
2022-09-09T19:03:04.197Z,1.10
2022-09-09T19:05:31.847Z,1.10
2022-09-09T19:08:03.861Z,1.30
2022-09-09T19:10:31.425Z,1.33
2022-09-09T19:12:59.014Z,1.33
2022-09-09T19:15:26.974Z,1.50
2022-09-09T19:17:55.101Z,2.40
2022-09-09T19:20:22.830Z,1.23
2022-09-09T19:22:50.666Z,1.53
2022-09-09T19:25:19.576Z,1.30
2022-09-09T19:27:47.120Z,1.50
2022-09-09T19:30:14.811Z,1.90
2022-09-09T19:32:53.141Z,1.70
2022-09-09T19:35:21.570Z,1.30
2022-09-09T19:37:49.198Z,1.40
2022-09-09T19:40:16.709Z,1.43
2022-09-09T19:42:44.268Z,1.50
2022-09-09T19:45:11.815Z,1.67
2022-09-09T19:47:43.560Z,1.80
2022-09-09T19:50:12.006Z,2.10
2022-09-09T19:52:41.583Z,1.50
2022-09-09T19:55:09.362Z,1.30
2022-09-09T19:57:37.732Z,1.50
2022-09-09T20:00:05.406Z,1.40
2022-09-09T20:02:33.195Z,1.73
2022-09-09T20:05:00.958Z,1.17
2022-09-09T20:07:30.144Z,1.20
2022-09-09T20:09:57.674Z,1.00
2022-09-09T20:12:25.463Z,1.27
2022-09-09T20:14:53.138Z,0.90
2022-09-09T20:17:20.785Z,1.00
2022-09-09T20:19:48.297Z,0.83
2022-09-09T20:22:15.765Z,0.90
2022-09-09T20:24:43.467Z,0.80
2022-09-09T20:27:10.956Z,0.90
2022-09-09T20:29:38.461Z,0.70
2022-09-09T20:32:06.283Z,0.73
2022-09-09T20:34:33.741Z,1.00
2022-09-09T20:37:01.281Z,0.90
2022-09-09T20:39:28.851Z,0.80
2022-09-09T20:41:59.258Z,1.10
2022-09-09T20:44:26.830Z,1.10
2022-09-09T20:46:55.828Z,0.90
2022-09-09T20:49:23.738Z,1.13
2022-09-09T20:51:51.588Z,1.07
2022-09-09T20:54:20.775Z,1.73
2022-09-09T20:56:48.432Z,0.90
2022-09-09T20:59:20.840Z,1.20
2022-09-09T21:01:48.561Z,1.13
2022-09-09T21:04:17.632Z,1.33
2022-09-09T21:06:45.625Z,1.30
2022-09-09T21:09:14.445Z,2.10
2022-09-09T21:11:42.011Z,1.80
2022-09-09T21:14:10.843Z,1.87
2022-09-09T21:16:38.495Z,2.00
2022-09-09T21:19:05.991Z,1.80
2022-09-09T21:21:33.525Z,2.10
2022-09-09T21:24:01.169Z,1.60
2022-09-09T21:26:28.644Z,2.83
2022-09-09T21:28:56.172Z,2.07
2022-09-09T21:31:27.967Z,1.90
2022-09-09T21:33:59.298Z,1.83
2022-09-09T21:36:27.184Z,1.80
2022-09-09T21:38:54.708Z,2.23
2022-09-09T21:41:22.320Z,1.97
2022-09-09T21:43:52.426Z,1.50
2022-09-09T21:46:20.286Z,1.40
2022-09-09T21:48:47.859Z,1.20
2022-09-09T21:51:16.464Z,1.83
2022-09-09T21:53:44.417Z,1.57
2022-09-09T21:56:13.144Z,1.53
2022-09-09T21:58:40.860Z,1.50
2022-09-09T22:01:12.346Z,1.90
2022-09-09T22:03:43.077Z,1.50
2022-09-09T22:06:12.639Z,1.63
2022-09-09T22:08:40.476Z,1.17
2022-09-09T22:11:08.505Z,1.80
2022-09-09T22:13:36.186Z,1.17
2022-09-09T22:16:05.099Z,1.43
2022-09-09T22:18:32.534Z,2.57
2022-09-09T22:21:00.274Z,2.07
2022-09-09T22:23:27.721Z,1.43
2022-09-09T22:25:55.204Z,2.57
2022-09-09T22:28:22.602Z,1.53
2022-09-09T22:30:50.131Z,1.70
2022-09-09T22:33:17.619Z,1.97
2022-09-09T22:35:48.672Z,2.00
2022-09-09T22:38:16.110Z,2.03
2022-09-09T22:40:43.731Z,1.90
2022-09-09T22:43:14.374Z,1.37
2022-09-09T22:45:42.819Z,1.83
2022-09-09T22:48:10.586Z,1.70
2022-09-09T22:50:42.098Z,1.60
2022-09-09T22:53:11.084Z,2.00
2022-09-09T22:55:38.521Z,1.97
2022-09-09T22:58:06.066Z,2.13
2022-09-09T23:00:33.510Z,2.13
2022-09-09T23:03:01.003Z,1.70
2022-09-09T23:05:28.495Z,1.43
2022-09-09T23:07:55.974Z,1.60
2022-09-09T23:10:23.399Z,1.53
2022-09-09T23:12:50.985Z,1.20
2022-09-09T23:15:18.387Z,1.70
2022-09-09T23:17:45.908Z,1.70
2022-09-09T23:20:13.329Z,1.30
2022-09-09T23:22:40.819Z,1.70
2022-09-09T23:25:08.442Z,1.40
2022-09-09T23:27:35.949Z,1.27
2022-09-09T23:30:03.650Z,1.10
2022-09-09T23:32:31.079Z,1.07
2022-09-09T23:34:58.484Z,1.20
2022-09-09T23:37:26.096Z,1.10
2022-09-09T23:39:53.551Z,0.97
2022-09-09T23:42:21.023Z,0.90
2022-09-09T23:44:48.656Z,1.03
2022-09-09T23:47:16.268Z,0.87
2022-09-09T23:49:43.715Z,0.90
2022-09-09T23:52:11.122Z,0.97
2022-09-09T23:54:38.601Z,0.90
2022-09-09T23:57:06.094Z,0.80
2022-09-09T23:59:33.534Z,1.00
